NCAR-RAP Real-Time Weather Data

Output produced by METARs form (24 July 2017  08:53 UTC)
found at http://weather.rap.ucar.edu/surface/
 
Conditions at: KPIE observed 24 July 2017  07:53 UTC
Temperature: 26.1°C (79°F)
Dewpoint: 24.4°C (76°F) [RH = 90%]
Pressure (altimeter): 30.01 inches Hg (1016.3 mb)
[Sea-level pressure: 1016.1 mb]
Winds: from the S (180 degrees) at 5 MPH (4 knots; 2.1 m/s)
Visibility: 10 or more miles (16+ km)
Ceiling: at least 12,000 feet AGL
Clouds: sky clear below 12,000 feet AGL
Present Weather: automated observation with no human augmentation;
there may or may not be significant weather present at this time
KPIE 240753Z AUTO 18004KT 10SM CLR 26/24 A3001 RMK AO2 SLP161 T02610244

Conditions at: KPIE observed 24 July 2017  06:53 UTC
Temperature: 26.7°C (80°F)
Dewpoint: 24.4°C (76°F) [RH = 87%]
Pressure (altimeter): 30.02 inches Hg (1016.7 mb)
[Sea-level pressure: 1016.4 mb]
Winds: from the SSE (160 degrees) at 5 MPH (4 knots; 2.1 m/s)
Visibility: 10 or more miles (16+ km)
Ceiling: at least 12,000 feet AGL
Clouds: sky clear below 12,000 feet AGL
Present Weather: automated observation with no human augmentation;
there may or may not be significant weather present at this time
KPIE 240653Z AUTO 16004KT 10SM CLR 27/24 A3002 RMK AO2 LTG DSNT N AND NW SLP164 T02670244

Conditions at: KPIE observed 24 July 2017  05:53 UTC
Temperature: 26.7°C (80°F)
Dewpoint: 25.0°C (77°F) [RH = 90%]
Pressure (altimeter): 30.02 inches Hg (1016.7 mb)
[Sea-level pressure: 1016.4 mb]
Winds: from the SE (140 degrees) at 5 MPH (4 knots; 2.1 m/s)
Visibility: 10 or more miles (16+ km)
Ceiling: at least 12,000 feet AGL
Clouds: sky clear below 12,000 feet AGL
Present Weather: automated observation with no human augmentation;
there may or may not be significant weather present at this time
KPIE 240553Z AUTO 14004KT 10SM CLR 27/25 A3002 RMK AO2 SLP164 T02670250 10272 20256 58001

Conditions at: KPIE observed 24 July 2017  04:53 UTC
Temperature: 26.7°C (80°F)
Dewpoint: 24.4°C (76°F) [RH = 87%]
Pressure (altimeter): 30.04 inches Hg (1017.4 mb)
[Sea-level pressure: 1017.1 mb]
Winds: from the SSE (160 degrees) at 6 MPH (5 knots; 2.6 m/s)
Visibility: 10 or more miles (16+ km)
Ceiling: at least 12,000 feet AGL
Clouds: sky clear below 12,000 feet AGL
Present Weather: automated observation with no human augmentation;
there may or may not be significant weather present at this time
KPIE 240453Z AUTO 16005KT 10SM CLR 27/24 A3004 RMK AO2 SLP171 T02670244 402780239

Conditions at: KPIE observed 24 July 2017  03:53 UTC
Temperature: 26.1°C (79°F)
Dewpoint: 23.9°C (75°F) [RH = 88%]
Pressure (altimeter): 30.04 inches Hg (1017.4 mb)
[Sea-level pressure: 1017.1 mb]
Winds: from the SE (140 degrees) at 3 MPH (3 knots; 1.6 m/s)
Visibility: 10 or more miles (16+ km)
Ceiling: at least 12,000 feet AGL
Clouds: sky clear below 12,000 feet AGL
Present Weather: automated observation with no human augmentation;
there may or may not be significant weather present at this time
KPIE 240353Z AUTO 14003KT 10SM CLR 26/24 A3004 RMK AO2 SLP171 T02610239

Conditions at: KPIE observed 24 July 2017  02:53 UTC
Temperature: 26.1°C (79°F)
Dewpoint: 23.9°C (75°F) [RH = 88%]
Pressure (altimeter): 30.02 inches Hg (1016.7 mb)
[Sea-level pressure: 1016.5 mb]
Winds: from the SSE (160 degrees) at 5 MPH (4 knots; 2.1 m/s)
Visibility: 10 or more miles (16+ km)
Ceiling: at least 12,000 feet AGL
Clouds: sky clear below 12,000 feet AGL
Present Weather: automated observation with no human augmentation;
there may or may not be significant weather present at this time
KPIE 240253Z AUTO 16004KT 10SM CLR 26/24 A3002 RMK AO2 SLP165 T02610239 53011

Conditions at: KPIE observed 24 July 2017  01:53 UTC
Temperature: 25.6°C (78°F)
Dewpoint: 23.9°C (75°F) [RH = 90%]
Pressure (altimeter): 29.99 inches Hg (1015.7 mb)
[Sea-level pressure: 1015.6 mb]
Winds: variable direction winds at 6 MPH (5 knots; 2.6 m/s)
Visibility: 10 or more miles (16+ km)
Ceiling: at least 12,000 feet AGL
Clouds: sky clear below 12,000 feet AGL
Present Weather: no significant weather observed at this time
KPIE 240153Z COR VRB05KT 10SM CLR 26/24 A2999 RMK AO2 SLP156 T02560239

Conditions at: KPIE observed 24 July 2017  00:53 UTC
Temperature: 26.7°C (80°F)
Dewpoint: 23.9°C (75°F) [RH = 85%]
Pressure (altimeter): 29.99 inches Hg (1015.7 mb)
[Sea-level pressure: 1015.4 mb]
Winds: from the SSW (200 degrees) at 5 MPH (4 knots; 2.1 m/s)
Visibility: 10 or more miles (16+ km)
Ceiling: at least 12,000 feet AGL
Clouds: sky clear below 12,000 feet AGL
Present Weather: no significant weather observed at this time
KPIE 240053Z 20004KT 10SM CLR 27/24 A2999 RMK AO2 SLP154 T02670239

Conditions at: KPIE observed 23 July 2017  23:53 UTC
Temperature: 27.2°C (81°F)
Dewpoint: 23.3°C (74°F) [RH = 79%]
Pressure (altimeter): 29.99 inches Hg (1015.7 mb)
[Sea-level pressure: 1015.4 mb]
Winds: from the S (180 degrees) at 7 MPH (6 knots; 3.1 m/s)
Visibility: 10 or more miles (16+ km)
Ceiling: at least 12,000 feet AGL
Clouds: scattered clouds at 6500 feet AGL
Present Weather: no significant weather observed at this time
KPIE 232353Z 18006KT 10SM SCT065 27/23 A2999 RMK AO2 SLP154 60002 T02720233 10278 20261 56015

Conditions at: KPIE observed 23 July 2017  22:53 UTC
Temperature: 27.2°C (81°F)
Dewpoint: 23.3°C (74°F) [RH = 79%]
Pressure (altimeter): 29.99 inches Hg (1015.7 mb)
[Sea-level pressure: 1015.4 mb]
Winds: from the SSE (150 degrees) at 7 MPH (6 knots; 3.1 m/s)
Visibility: 10 or more miles (16+ km)
Ceiling: at least 12,000 feet AGL
Clouds: scattered clouds at 6500 feet AGL
Present Weather: no significant weather observed at this time
KPIE 232253Z 15006KT 10SM SCT065 27/23 A2999 RMK AO2 SLP154 T02720233

Conditions at: KPIE observed 23 July 2017  21:53 UTC
Temperature: 27.2°C (81°F)
Dewpoint: 23.3°C (74°F) [RH = 79%]
Pressure (altimeter): 30.01 inches Hg (1016.3 mb)
[Sea-level pressure: 1016.2 mb]
Winds: from the ESE (110 degrees) at 3 MPH (3 knots; 1.6 m/s)
Visibility: 10 or more miles (16+ km)
Ceiling: 13000 feet AGL
Clouds: few clouds at 4000 feet AGL
broken clouds at 13000 feet AGL
Present Weather: no significant weather observed at this time
KPIE 232153Z 11003KT 10SM FEW040 BKN130 27/23 A3001 RMK AO2 SLP162 T02720233

Conditions at: KPIE observed 23 July 2017  20:53 UTC
Temperature: 27.2°C (81°F)
Dewpoint: 22.8°C (73°F) [RH = 77%]
Pressure (altimeter): 30.03 inches Hg (1017.0 mb)
[Sea-level pressure: 1016.8 mb]
Winds: from the NE (50 degrees) at 3 MPH (3 knots; 1.6 m/s)
Visibility: 10 or more miles (16+ km)
Ceiling: 7000 feet AGL
Clouds: scattered clouds at 4000 feet AGL
broken clouds at 7000 feet AGL
overcast cloud deck at 11000 feet AGL
Present Weather: no significant weather observed at this time
KPIE 232053Z 05003KT 10SM SCT040 BKN070 OVC110 27/23 A3003 RMK AO2 SLP168 60002 T02720228 56018

Conditions at: KPIE observed 23 July 2017  19:53 UTC
Temperature: 26.1°C (79°F)
Dewpoint: 22.8°C (73°F) [RH = 82%]
Pressure (altimeter): 30.04 inches Hg (1017.4 mb)
[Sea-level pressure: 1017.1 mb]
Winds: from the ESE (120 degrees) at 5 MPH (4 knots; 2.1 m/s)
Visibility: 10 or more miles (16+ km)
Ceiling: at least 12,000 feet AGL
Clouds: few clouds at 3600 feet AGL
few clouds at 4400 feet AGL
few clouds at 8000 feet AGL
Present Weather: no significant weather observed at this time
KPIE 231953Z 12004KT 10SM FEW036 FEW044 FEW080 26/23 A3004 RMK AO2 RAE47 SLP171 P0001 T02610228

Conditions at: KPIE observed 23 July 2017  18:53 UTC
Temperature: 26.1°C (79°F)
Dewpoint: 23.3°C (74°F) [RH = 85%]
Pressure (altimeter): 30.05 inches Hg (1017.7 mb)
[Sea-level pressure: 1017.6 mb]
Winds: calm
Visibility: 8 miles (13 km)
Ceiling: 9000 feet AGL
Clouds: few clouds at 6000 feet AGL
broken clouds at 9000 feet AGL
broken clouds at 12000 feet AGL
Present Weather: -RA  (light rain)
KPIE 231853Z 00000KT 8SM -RA FEW060 BKN090 BKN120 26/23 A3005 RMK AO2 RAB21 SLP176 P0001 T02610233

Conditions at: KPIE observed 23 July 2017  17:53 UTC
Temperature: 26.7°C (80°F)
Dewpoint: 23.3°C (74°F) [RH = 82%]
Pressure (altimeter): 30.08 inches Hg (1018.7 mb)
[Sea-level pressure: 1018.6 mb]
Winds: from the NNE (20 degrees) at 6 MPH (5 knots; 2.6 m/s)
Visibility: 10 or more miles (16+ km)
Ceiling: at least 12,000 feet AGL
Clouds: few clouds at 5000 feet AGL
Present Weather: no significant weather observed at this time
KPIE 231753Z 02005KT 10SM FEW050 27/23 A3008 RMK AO2 SLP186 60020 T02670233 10272 20239 51000

Conditions at: KPIE observed 23 July 2017  16:53 UTC
Temperature: 26.1°C (79°F)
Dewpoint: 22.2°C (72°F) [RH = 79%]
Pressure (altimeter): 30.08 inches Hg (1018.7 mb)
[Sea-level pressure: 1018.4 mb]
Winds: from the NNE (20 degrees) at 3 MPH (3 knots; 1.6 m/s)
Visibility: 10 or more miles (16+ km)
Ceiling: at least 12,000 feet AGL
Clouds: few clouds at 2500 feet AGL
Present Weather: no significant weather observed at this time
KPIE 231653Z 02003KT 10SM FEW025 26/22 A3008 RMK AO2 LTG DSNT W AND NW RAE07 SLP184 P0000 T02610222

Conditions at: KPIE observed 23 July 2017  15:53 UTC
Temperature: 25.0°C (77°F)
Dewpoint: 22.8°C (73°F) [RH = 88%]
Pressure (altimeter): 30.09 inches Hg (1019.0 mb)
[Sea-level pressure: 1018.9 mb]
Winds: from the WNW (290 degrees) at 5 MPH (4 knots; 2.1 m/s)
Visibility: 10 or more miles (16+ km)
Ceiling: 11000 feet AGL
Clouds: few clouds at 1200 feet AGL
scattered clouds at 8000 feet AGL
broken clouds at 11000 feet AGL
Present Weather: -RA  (light rain)
KPIE 231553Z 29004KT 10SM -RA FEW012 SCT080 BKN110 25/23 A3009 RMK AO2 LTG DSNT SE TSE24 SLP189 P0002 T02500228

Conditions at: KPIE observed 23 July 2017  15:24 UTC
Temperature: 23.9°C (75°F)
Dewpoint: 21.7°C (71°F) [RH = 88%]
Pressure (altimeter): 30.08 inches Hg (1018.7 mb)
Winds: from the SE (140 degrees) at 6 MPH (5 knots; 2.6 m/s)
Visibility: 10 or more miles (16+ km)
Ceiling: 9000 feet AGL
Clouds: scattered clouds at 5000 feet AGL
broken clouds at 9000 feet AGL
overcast cloud deck at 11000 feet AGL
Present Weather: -RA  (light rain)
KPIE 231524Z 14005KT 10SM -RA SCT050 BKN090 OVC110 24/22 A3008 RMK AO2 LTG DSNT S AND SW TSE24 P0002 T02390217

Conditions at: KPIE observed 23 July 2017  14:53 UTC
Temperature: 24.4°C (76°F)
Dewpoint: 22.2°C (72°F) [RH = 88%]
Pressure (altimeter): 30.08 inches Hg (1018.7 mb)
[Sea-level pressure: 1018.5 mb]
Winds: from the SE (140 degrees) at 5 MPH (4 knots; 2.1 m/s)
Visibility: 6 miles (10 km)
Ceiling: 800 feet AGL
Clouds: broken clouds at 800 feet AGL
Present Weather: TSRA  (rain associated with thunderstorm(s))
KPIE 231453Z 14004KT 6SM TSRA BKN008 24/22 A3008 RMK AO2 LTG DSNT SE AND S TSB33 SLP185 P0014 60018 T02440222 51011

Conditions at: KPIE observed 23 July 2017  14:33 UTC
Temperature: 24.4°C (76°F)
Dewpoint: 22.8°C (73°F) [RH = 91%]
Pressure (altimeter): 30.09 inches Hg (1019.0 mb)
Winds: from the W (260 degrees) at 3 MPH (3 knots; 1.6 m/s)
Visibility: 6 miles (10 km)
Ceiling: 800 feet AGL
Clouds: broken clouds at 800 feet AGL
Present Weather: TSRA  (rain associated with thunderstorm(s))
KPIE 231433Z 26003KT 6SM TSRA BKN008 24/23 A3009 RMK AO2 LTG DSNT ALQDS TSB33 P0009 T02440228

Conditions at: KPIE observed 23 July 2017  14:03 UTC
Temperature: 23.9°C (75°F)
Dewpoint: 22.2°C (72°F) [RH = 90%]
Pressure (altimeter): 30.07 inches Hg (1018.4 mb)
Winds: from the S (180 degrees) at 3 MPH (3 knots; 1.6 m/s)
Visibility: 4 miles (6 km)
Ceiling: 3000 feet AGL
Clouds: overcast cloud deck at 3000 feet AGL
Present Weather: RA BR  (rain, mist)
KPIE 231403Z 18003KT 4SM RA BR OVC030 24/22 A3007 RMK AO2 LTG DSNT ALQDS P0002 T02390222

Conditions at: KPIE observed 23 July 2017  13:53 UTC
Temperature: 24.4°C (76°F)
Dewpoint: 21.7°C (71°F) [RH = 85%]
Pressure (altimeter): 30.08 inches Hg (1018.7 mb)
[Sea-level pressure: 1018.5 mb]
Winds: calm
Visibility: 4 miles (6 km)
Ceiling: 500 feet AGL
Clouds: overcast cloud deck at 500 feet AGL
Present Weather: -RA  (light rain)
KPIE 231353Z 00000KT 4SM -RA OVC005 24/22 A3008 RMK AO2 WSHFT 1253 LTG DSNT ALQDS RAB33 SLP185 P0004 T02440217

Conditions at: KPIE observed 23 July 2017  13:36 UTC
Temperature: 24.4°C (76°F)
Dewpoint: 22.2°C (72°F) [RH = 88%]
Pressure (altimeter): 30.08 inches Hg (1018.7 mb)
Winds: from the W (270 degrees) at 8 MPH (7 knots; 3.6 m/s)
Visibility: 3 miles (5 km)
Ceiling: 500 feet AGL
Clouds: overcast cloud deck at 500 feet AGL
Present Weather: VCTS -RA BR  (thunderstorm in vicinity, light rain, mist)
KPIE 231336Z COR 27007KT 3SM VCTS -RA BR OVC005 24/22 A3008 RMK AO2 WSHFT 1253 LTG DSNT ALQDS RAB33 P0000 T02440222

Conditions at: KPIE observed 23 July 2017  13:29 UTC
Temperature: 25.0°C (77°F)
Dewpoint: 22.2°C (72°F) [RH = 84%]
Pressure (altimeter): 30.08 inches Hg (1018.7 mb)
Winds: from the WSW (250 degrees) at 8 MPH (7 knots; 3.6 m/s)
Visibility: 10 or more miles (16+ km)
Ceiling: 9500 feet AGL
Clouds: few clouds at 5000 feet AGL
scattered clouds at 7000 feet AGL
broken clouds at 9500 feet AGL
Present Weather: no significant weather observed at this time
KPIE 231329Z 25007KT 10SM FEW050 SCT070 BKN095 25/22 A3008 RMK AO2 WSHFT 1253 LTG DSNT ALQDS T02500222

Conditions at: KPIE observed 23 July 2017  13:13 UTC
Temperature: 25.0°C (77°F)
Dewpoint: 22.8°C (73°F) [RH = 88%]
Pressure (altimeter): 30.07 inches Hg (1018.4 mb)
Winds: from the W (270 degrees) at 7 MPH (6 knots; 3.1 m/s)
Visibility: 10 or more miles (16+ km)
Ceiling: 5500 feet AGL
Clouds: few clouds at 1700 feet AGL
scattered clouds at 4900 feet AGL
broken clouds at 5500 feet AGL
Present Weather: VCTS  (thunderstorm in vicinity)
KPIE 231313Z 27006KT 10SM VCTS FEW017 SCT049 BKN055 25/23 A3007 RMK AO2 WSHFT 1253 LTG DSNT ALQDS T02500228

Conditions at: KPIE observed 23 July 2017  12:53 UTC
Temperature: 25.6°C (78°F)
Dewpoint: 22.2°C (72°F) [RH = 82%]
Pressure (altimeter): 30.08 inches Hg (1018.7 mb)
[Sea-level pressure: 1018.5 mb]
Winds: from the WNW (290 degrees) at 13 MPH (11 knots; 5.7 m/s)
gusting to 21 MPH (18 knots; 9.4 m/s)
Visibility: 10 or more miles (16+ km)
Ceiling: 10000 feet AGL
Clouds: few clouds at 4900 feet AGL
scattered clouds at 7000 feet AGL
broken clouds at 10000 feet AGL
Present Weather: VCTS  (thunderstorm in vicinity)
KPIE 231253Z 29011G18KT 10SM VCTS FEW049 SCT070 BKN100 26/22 A3008 RMK AO2 LTG DSNT ALQDS SLP185 T02560222

Conditions at: KPIE observed 23 July 2017  12:43 UTC
Temperature: 25.6°C (78°F)
Dewpoint: 22.8°C (73°F) [RH = 85%]
Pressure (altimeter): 30.07 inches Hg (1018.4 mb)
Winds: from the SSW (200 degrees) at 3 MPH (3 knots; 1.6 m/s)
Visibility: 10 or more miles (16+ km)
Ceiling: 7000 feet AGL
Clouds: few clouds at 4900 feet AGL
broken clouds at 7000 feet AGL
broken clouds at 9000 feet AGL
Present Weather: VCTS  (thunderstorm in vicinity)
KPIE 231243Z 20003KT 10SM VCTS FEW049 BKN070 BKN090 26/23 A3007 RMK AO2 LTG DSNT SW-N T02560228

Conditions at: KPIE observed 23 July 2017  11:53 UTC
Temperature: 26.7°C (80°F)
Dewpoint: 23.3°C (74°F) [RH = 82%]
Pressure (altimeter): 30.05 inches Hg (1017.7 mb)
[Sea-level pressure: 1017.5 mb]
Winds: from the SW (220 degrees) at 7 MPH (6 knots; 3.1 m/s)
Visibility: 10 or more miles (16+ km)
Ceiling: at least 12,000 feet AGL
Clouds: scattered clouds at 6500 feet AGL
Present Weather: no significant weather observed at this time
KPIE 231153Z 22006KT 10SM SCT065 27/23 A3005 RMK AO2 LTG DSNT SW-NW RAE1059 PRESRR SLP175 P0000 60027 70028 T02670233 10272 20256 53013

Conditions at: KPIE observed 23 July 2017  10:53 UTC
Temperature: 26.1°C (79°F)
Dewpoint: 24.4°C (76°F) [RH = 90%]
Pressure (altimeter): 30.02 inches Hg (1016.7 mb)
[Sea-level pressure: 1016.3 mb]
Winds: from the S (170 degrees) at 7 MPH (6 knots; 3.1 m/s)
Visibility: 8 miles (13 km)
Ceiling: 11000 feet AGL
Clouds: few clouds at 7000 feet AGL
scattered clouds at 10000 feet AGL
broken clouds at 11000 feet AGL
Present Weather: -RA  (light rain)
KPIE 231053Z 17006KT 8SM -RA FEW070 SCT100 BKN110 26/24 A3002 RMK AO2 LTG DSNT S-NW RAB47 SLP163 P0001 T02610244

Conditions at: KPIE observed 23 July 2017  10:25 UTC
Temperature: 25.6°C (78°F)
Dewpoint: 24.4°C (76°F) [RH = 93%]
Pressure (altimeter): 30.01 inches Hg (1016.3 mb)
Winds: from the SSW (200 degrees) at 5 MPH (4 knots; 2.1 m/s)
Visibility: 10 or more miles (16+ km)
Ceiling: at least 12,000 feet AGL
Clouds: sky clear below 12,000 feet AGL
Present Weather: no significant weather observed at this time
KPIE 231025Z 20004KT 10SM CLR 26/24 A3001 RMK AO2 LTG DSNT SE-SW T02560244

Conditions at: KPIE observed 23 July 2017  10:10 UTC
Temperature: 26.1°C (79°F)
Dewpoint: 24.4°C (76°F) [RH = 90%]
Pressure (altimeter): 30.01 inches Hg (1016.3 mb)
Winds: from the SSW (210 degrees) at 3 MPH (3 knots; 1.6 m/s)
Visibility: 9 miles (14 km)
Ceiling: at least 12,000 feet AGL
Clouds: few clouds at 5000 feet AGL
Present Weather: VCTS  (thunderstorm in vicinity)
KPIE 231010Z 21003KT 9SM VCTS FEW050 26/24 A3001 RMK AO2 LTG DSNT S AND SW T02610244

Conditions at: KPIE observed 23 July 2017  09:53 UTC
Temperature: 26.1°C (79°F)
Dewpoint: 24.4°C (76°F) [RH = 90%]
Pressure (altimeter): 30.01 inches Hg (1016.3 mb)
[Sea-level pressure: 1016.2 mb]
Winds: from the SSE (150 degrees) at 5 MPH (4 knots; 2.1 m/s)
Visibility: 9 miles (14 km)
Ceiling: at least 12,000 feet AGL
Clouds: few clouds at 900 feet AGL
few clouds at 3000 feet AGL
scattered clouds at 5000 feet AGL
Present Weather: automated observation with no human augmentation;
there may or may not be significant weather present at this time
KPIE 230953Z AUTO 15004KT 9SM FEW009 FEW030 SCT050 26/24 A3001 RMK AO2 LTG DSNT S AND SW RAE26B41E53 TSE0857 SLP162 P0002 T02610244

Conditions at: KPIE observed 23 July 2017  09:50 UTC
Temperature: 26.0°C (79°F)
Dewpoint: 24.0°C (75°F) [RH = 89%]
Pressure (altimeter): 30.01 inches Hg (1016.3 mb)
Winds: from the S (170 degrees) at 5 MPH (4 knots; 2.1 m/s)
Visibility: 9 miles (14 km)
Ceiling: at least 12,000 feet AGL
Clouds: few clouds at 900 feet AGL
scattered clouds at 5500 feet AGL
Present Weather: -RA  (light rain)
KPIE 230950Z AUTO 17004KT 9SM -RA FEW009 SCT055 26/24 A3001 RMK AO2 LTG DSNT S AND SW RAE26B41 TSE0857 P0002

Conditions at: KPIE observed 23 July 2017  09:41 UTC
Temperature: 26.1°C (79°F)
Dewpoint: 24.4°C (76°F) [RH = 90%]
Pressure (altimeter): 30.01 inches Hg (1016.3 mb)
Winds: from the S (190 degrees) at 3 MPH (3 knots; 1.6 m/s)
Visibility: 10 or more miles (16+ km)
Ceiling: 3300 feet AGL
Clouds: scattered clouds at 1100 feet AGL
scattered clouds at 2300 feet AGL
broken clouds at 3300 feet AGL
Present Weather: -RA  (light rain)
KPIE 230941Z AUTO 19003KT 10SM -RA SCT011 SCT023 BKN033 26/24 A3001 RMK AO2 LTG DSNT S AND SW RAE26B41 TSE0857 P0002 T02610244

Conditions at: KPIE observed 23 July 2017  09:33 UTC
Temperature: 26.1°C (79°F)
Dewpoint: 24.4°C (76°F) [RH = 90%]
Pressure (altimeter): 30.01 inches Hg (1016.3 mb)
Winds: calm
Visibility: 10 or more miles (16+ km)
Ceiling: 1400 feet AGL
Clouds: scattered clouds at 800 feet AGL
broken clouds at 1400 feet AGL
overcast cloud deck at 3400 feet AGL
Present Weather: automated observation with no human augmentation;
there may or may not be significant weather present at this time
KPIE 230933Z AUTO 00000KT 10SM SCT008 BKN014 OVC034 26/24 A3001 RMK AO2 LTG DSNT S AND SW RAE26 TSE0857 P0002 T02610244

Conditions at: KPIE observed 23 July 2017  09:25 UTC
Temperature: 26.1°C (79°F)
Dewpoint: 24.4°C (76°F) [RH = 90%]
Pressure (altimeter): 30.02 inches Hg (1016.7 mb)
Winds: from the WSW (250 degrees) at 3 MPH (3 knots; 1.6 m/s)
Visibility: 10 or more miles (16+ km)
Ceiling: 2500 feet AGL
Clouds: scattered clouds at 1200 feet AGL
broken clouds at 2500 feet AGL
overcast cloud deck at 6000 feet AGL
Present Weather: -RA  (light rain)
KPIE 230925Z AUTO 25003KT 10SM -RA SCT012 BKN025 OVC060 26/24 A3002 RMK AO2 LTG DSNT S AND SW TSE0857 P0002 T02610244

Conditions at: KPIE observed 23 July 2017  09:03 UTC
Temperature: 26.1°C (79°F)
Dewpoint: 24.4°C (76°F) [RH = 90%]
Pressure (altimeter): 30.01 inches Hg (1016.3 mb)
Winds: calm
Visibility: 4 miles (6 km)
Ceiling: 5500 feet AGL
Clouds: few clouds at 2200 feet AGL
broken clouds at 5500 feet AGL
overcast cloud deck at 10000 feet AGL
Present Weather: VCTS RA BR  (thunderstorm in vicinity, rain, mist)
KPIE 230903Z AUTO 00000KT 4SM VCTS RA BR FEW022 BKN055 OVC100 26/24 A3001 RMK AO2 LTG DSNT NE AND S AND SW TSE0857 P0002 T02610244

Conditions at: KPIE observed 23 July 2017  08:53 UTC
Temperature: 26.1°C (79°F)
Dewpoint: 24.4°C (76°F) [RH = 90%]
Pressure (altimeter): 30.01 inches Hg (1016.3 mb)
[Sea-level pressure: 1016.0 mb]
Winds: calm
Visibility: 3 miles (5 km)
Ceiling: 4600 feet AGL
Clouds: few clouds at 2200 feet AGL
broken clouds at 4600 feet AGL
overcast cloud deck at 9000 feet AGL
Present Weather: TSRA BR  (rain associated with thunderstorm(s), mist)
KPIE 230853Z AUTO 00000KT 3SM TSRA BR FEW022 BKN046 OVC090 26/24 A3001 RMK AO2 LTG DSNT S AND SW SLP160 P0024 60024 T02610244 56012

Conditions at: KPIE observed 23 July 2017  08:45 UTC
Temperature: 26.1°C (79°F)
Dewpoint: 24.4°C (76°F) [RH = 90%]
Pressure (altimeter): 30.00 inches Hg (1016.0 mb)
Winds: calm
Visibility: 3 miles (5 km)
Ceiling: 5000 feet AGL
Clouds: few clouds at 2200 feet AGL
scattered clouds at 4300 feet AGL
overcast cloud deck at 5000 feet AGL
Present Weather: TSRA BR  (rain associated with thunderstorm(s), mist)
KPIE 230845Z AUTO 00000KT 3SM TSRA BR FEW022 SCT043 OVC050 26/24 A3000 RMK AO2 LTG DSNT SW P0022 T02610244

Conditions at: KPIE observed 23 July 2017  08:14 UTC
Temperature: 26.7°C (80°F)
Dewpoint: 24.4°C (76°F) [RH = 87%]
Pressure (altimeter): 30.00 inches Hg (1016.0 mb)
Winds: calm
Visibility: 1.75 miles (2.82 km)
Ceiling: 6000 feet AGL
Clouds: scattered clouds at 2200 feet AGL
broken clouds at 6000 feet AGL
overcast cloud deck at 11000 feet AGL
Present Weather: TSRA BR  (rain associated with thunderstorm(s), mist)
KPIE 230814Z AUTO 00000KT 1 3/4SM TSRA BR SCT022 BKN060 OVC110 27/24 A3000 RMK AO2 VIS 1/2V5 LTG DSNT ALQDS P0006 T02670244

Conditions at: KPIE observed 23 July 2017  08:08 UTC
Temperature: 26.7°C (80°F)
Dewpoint: 24.4°C (76°F) [RH = 87%]
Pressure (altimeter): 30.01 inches Hg (1016.3 mb)
Winds: from the SE (140 degrees) at 3 MPH (3 knots; 1.6 m/s)
Visibility: 2.00 miles (3.22 km)
Ceiling: 2200 feet AGL
Clouds: broken clouds at 2200 feet AGL
broken clouds at 5000 feet AGL
overcast cloud deck at 11000 feet AGL
Present Weather: -TSRA BR  (light rain associated with thunderstorm(s), mist)
KPIE 230808Z AUTO 14003KT 2SM -TSRA BR BKN022 BKN050 OVC110 27/24 A3001 RMK AO2 VIS 1/2V5 LTG DSNT ALQDS P0004 T02670244

Conditions at: KPIE observed 23 July 2017  07:53 UTC
Temperature: 26.7°C (80°F)
Dewpoint: 24.4°C (76°F) [RH = 87%]
Pressure (altimeter): 30.01 inches Hg (1016.3 mb)
[Sea-level pressure: 1016.2 mb]
Winds: from the SSE (150 degrees) at 5 MPH (4 knots; 2.1 m/s)
Visibility: 7 miles (11 km)
Ceiling: 4400 feet AGL
Clouds: scattered clouds at 2300 feet AGL
broken clouds at 4400 feet AGL
overcast cloud deck at 9000 feet AGL
Present Weather: -TSRA  (light rain associated with thunderstorm(s))
KPIE 230753Z AUTO 15004KT 7SM -TSRA SCT023 BKN044 OVC090 27/24 A3001 RMK AO2 LTG DSNT SW RAB47 TSB28 SLP162 P0000 T02670244

Conditions at: KPIE observed 23 July 2017  07:34 UTC
Temperature: 27.2°C (81°F)
Dewpoint: 24.4°C (76°F) [RH = 85%]
Pressure (altimeter): 30.02 inches Hg (1016.7 mb)
Winds: from the SSE (150 degrees) at 8 MPH (7 knots; 3.6 m/s)
Visibility: 10 or more miles (16+ km)
Ceiling: 8500 feet AGL
Clouds: few clouds at 3000 feet AGL
scattered clouds at 4000 feet AGL
broken clouds at 8500 feet AGL
Present Weather: TS  (thunderstorm)
KPIE 230734Z AUTO 15007KT 10SM TS FEW030 SCT040 BKN085 27/24 A3002 RMK AO2 TSB28 T02720244

Conditions at: KPIE observed 23 July 2017  06:53 UTC
Temperature: 27.2°C (81°F)
Dewpoint: 25.0°C (77°F) [RH = 88%]
Pressure (altimeter): 30.02 inches Hg (1016.7 mb)
[Sea-level pressure: 1016.6 mb]
Winds: from the SE (140 degrees) at 8 MPH (7 knots; 3.6 m/s)
Visibility: 10 or more miles (16+ km)
Ceiling: at least 12,000 feet AGL
Clouds: sky clear below 12,000 feet AGL
Present Weather: automated observation with no human augmentation;
there may or may not be significant weather present at this time
KPIE 230653Z AUTO 14007KT 10SM CLR 27/25 A3002 RMK AO2 SLP166 T02720250

Conditions at: KPIE observed 23 July 2017  05:53 UTC
Temperature: 26.7°C (80°F)
Dewpoint: 24.4°C (76°F) [RH = 87%]
Pressure (altimeter): 30.04 inches Hg (1017.4 mb)
[Sea-level pressure: 1017.2 mb]
Winds: from the SE (130 degrees) at 5 MPH (4 knots; 2.1 m/s)
Visibility: 10 or more miles (16+ km)
Ceiling: at least 12,000 feet AGL
Clouds: sky clear below 12,000 feet AGL
Present Weather: automated observation with no human augmentation;
there may or may not be significant weather present at this time
KPIE 230553Z AUTO 13004KT 10SM CLR 27/24 A3004 RMK AO2 SLP172 T02670244 10289 20267 50003

Conditions at: KPIE observed 23 July 2017  04:53 UTC
Temperature: 27.2°C (81°F)
Dewpoint: 25.0°C (77°F) [RH = 88%]
Pressure (altimeter): 30.05 inches Hg (1017.7 mb)
[Sea-level pressure: 1017.4 mb]
Winds: from the ESE (110 degrees) at 3 MPH (3 knots; 1.6 m/s)
Visibility: 10 or more miles (16+ km)
Ceiling: at least 12,000 feet AGL
Clouds: sky clear below 12,000 feet AGL
Present Weather: automated observation with no human augmentation;
there may or may not be significant weather present at this time
KPIE 230453Z AUTO 11003KT 10SM CLR 27/25 A3005 RMK AO2 SLP174 T02720250 403110250

Conditions at: KPIE observed 23 July 2017  03:53 UTC
Temperature: 27.2°C (81°F)
Dewpoint: 24.4°C (76°F) [RH = 85%]
Pressure (altimeter): 30.04 inches Hg (1017.4 mb)
[Sea-level pressure: 1017.2 mb]
Winds: from the SW (230 degrees) at 3 MPH (3 knots; 1.6 m/s)
Visibility: 10 or more miles (16+ km)
Ceiling: at least 12,000 feet AGL
Clouds: sky clear below 12,000 feet AGL
Present Weather: automated observation with no human augmentation;
there may or may not be significant weather present at this time
KPIE 230353Z AUTO 23003KT 10SM CLR 27/24 A3004 RMK AO2 SLP172 T02720244

Conditions at: KPIE observed 23 July 2017  02:53 UTC
Temperature: 27.8°C (82°F)
Dewpoint: 24.4°C (76°F) [RH = 82%]
Pressure (altimeter): 30.03 inches Hg (1017.0 mb)
[Sea-level pressure: 1016.9 mb]
Winds: from the S (180 degrees) at 7 MPH (6 knots; 3.1 m/s)
Visibility: 10 or more miles (16+ km)
Ceiling: at least 12,000 feet AGL
Clouds: sky clear below 12,000 feet AGL
Present Weather: automated observation with no human augmentation;
there may or may not be significant weather present at this time
KPIE 230253Z AUTO 18006KT 10SM CLR 28/24 A3003 RMK AO2 SLP169 T02780244 58005

Conditions at: KPIE observed 23 July 2017  01:53 UTC
Temperature: 27.8°C (82°F)
Dewpoint: 24.4°C (76°F) [RH = 82%]
Pressure (altimeter): 30.04 inches Hg (1017.4 mb)
[Sea-level pressure: 1017.2 mb]
Winds: from the S (170 degrees) at 7 MPH (6 knots; 3.1 m/s)
Visibility: 10 or more miles (16+ km)
Ceiling: at least 12,000 feet AGL
Clouds: sky clear below 12,000 feet AGL
Present Weather: no significant weather observed at this time
KPIE 230153Z 17006KT 10SM CLR 28/24 A3004 RMK AO2 SLP172 T02780244

Conditions at: KPIE observed 23 July 2017  00:53 UTC
Temperature: 28.3°C (83°F)
Dewpoint: 23.3°C (74°F) [RH = 74%]
Pressure (altimeter): 30.04 inches Hg (1017.4 mb)
[Sea-level pressure: 1017.3 mb]
Winds: from the S (170 degrees) at 3 MPH (3 knots; 1.6 m/s)
Visibility: 10 or more miles (16+ km)
Ceiling: at least 12,000 feet AGL
Clouds: sky clear below 12,000 feet AGL
Present Weather: no significant weather observed at this time
KPIE 230053Z 17003KT 10SM CLR 28/23 A3004 RMK AO2 LTG DSNT S AND SW SLP173 T02830233

Conditions at: KPIE observed 22 July 2017  23:53 UTC
Temperature: 28.9°C (84°F)
Dewpoint: 22.8°C (73°F) [RH = 70%]
Pressure (altimeter): 30.05 inches Hg (1017.7 mb)
[Sea-level pressure: 1017.4 mb]
Winds: from the S (190 degrees) at 7 MPH (6 knots; 3.1 m/s)
Visibility: 10 or more miles (16+ km)
Ceiling: at least 12,000 feet AGL
Clouds: sky clear below 12,000 feet AGL
Present Weather: no significant weather observed at this time
KPIE 222353Z 19006KT 10SM CLR 29/23 A3005 RMK AO2 LTG DSNT S SLP174 60000 T02890228 10306 20289 52003

Conditions at: KPIE observed 22 July 2017  22:53 UTC
Temperature: 29.4°C (85°F)
Dewpoint: 22.8°C (73°F) [RH = 68%]
Pressure (altimeter): 30.04 inches Hg (1017.4 mb)
[Sea-level pressure: 1017.2 mb]
Winds: from the WSW (240 degrees) at 5 MPH (4 knots; 2.1 m/s)
Visibility: 10 or more miles (16+ km)
Ceiling: at least 12,000 feet AGL
Clouds: sky clear below 12,000 feet AGL
Present Weather: no significant weather observed at this time
KPIE 222253Z 24004KT 10SM CLR 29/23 A3004 RMK AO2 SLP172 T02940228

Conditions at: KPIE observed 22 July 2017  21:53 UTC
Temperature: 30.0°C (86°F)
Dewpoint: 22.8°C (73°F) [RH = 65%]
Pressure (altimeter): 30.04 inches Hg (1017.4 mb)
[Sea-level pressure: 1017.3 mb]
Winds: calm
Visibility: 10 or more miles (16+ km)
Ceiling: at least 12,000 feet AGL
Clouds: sky clear below 12,000 feet AGL
Present Weather: no significant weather observed at this time
KPIE 222153Z 00000KT 10SM CLR 30/23 A3004 RMK AO2 SLP173 T03000228

Conditions at: KPIE observed 22 July 2017  20:53 UTC
Temperature: 30.0°C (86°F)
Dewpoint: 23.3°C (74°F) [RH = 67%]
Pressure (altimeter): 30.04 inches Hg (1017.4 mb)
[Sea-level pressure: 1017.1 mb]
Winds: from the SSE (150 degrees) at 3 MPH (3 knots; 1.6 m/s)
Visibility: 10 or more miles (16+ km)
Ceiling: at least 12,000 feet AGL
Clouds: few clouds at 2000 feet AGL
Present Weather: no significant weather observed at this time
KPIE 222053Z 15003KT 10SM FEW020 30/23 A3004 RMK AO2 LTG DSNT E AND SW TSE49 SLP171 60000 T03000233 58010

Conditions at: KPIE observed 22 July 2017  19:53 UTC
Temperature: 29.4°C (85°F)
Dewpoint: 23.9°C (75°F) [RH = 72%]
Pressure (altimeter): 30.06 inches Hg (1018.0 mb)
[Sea-level pressure: 1017.9 mb]
Winds: from the S (180 degrees) at 3 MPH (3 knots; 1.6 m/s)
Visibility: 10 or more miles (16+ km)
Ceiling: at least 12,000 feet AGL
Clouds: scattered clouds at 2100 feet AGL
Present Weather: TS  (thunderstorm)
KPIE 221953Z 18003KT 10SM TS SCT021 29/24 A3006 RMK AO2 LTG DSNT SE AND S RAB1859E22 TSB1858E13B15E18E38B39 SLP179 P0000 T02940239

Conditions at: KPIE observed 22 July 2017  19:28 UTC
Temperature: 28.9°C (84°F)
Dewpoint: 23.9°C (75°F) [RH = 74%]
Pressure (altimeter): 30.06 inches Hg (1018.0 mb)
Winds: calm
Visibility: 10 or more miles (16+ km)
Ceiling: 2100 feet AGL
Clouds: broken clouds at 2100 feet AGL
broken clouds at 3800 feet AGL
overcast cloud deck at 5000 feet AGL
Present Weather: TS  (thunderstorm)
KPIE 221928Z 00000KT 10SM TS BKN021 BKN038 OVC050 29/24 A3006 RMK AO2 LTG DSNT SE AND S RAB1859E22 TSB1858E13B15E18 P0000 T02890239

Conditions at: KPIE observed 22 July 2017  19:14 UTC
Temperature: 28.9°C (84°F)
Dewpoint: 23.9°C (75°F) [RH = 74%]
Pressure (altimeter): 30.06 inches Hg (1018.0 mb)
Winds: from the NNE (30 degrees) at 3 MPH (3 knots; 1.6 m/s)
Visibility: 10 or more miles (16+ km)
Ceiling: 5000 feet AGL
Clouds: few clouds at 2000 feet AGL
scattered clouds at 3500 feet AGL
broken clouds at 5000 feet AGL
Present Weather: -RA  (light rain)
KPIE 221914Z 03003KT 10SM -RA FEW020 SCT035 BKN050 29/24 A3006 RMK AO2 LTG DSNT SE AND S RAB1859 TSB1858E13 P0000 T02890239

Conditions at: KPIE observed 22 July 2017  19:04 UTC
Temperature: 28.9°C (84°F)
Dewpoint: 23.9°C (75°F) [RH = 74%]
Pressure (altimeter): 30.07 inches Hg (1018.4 mb)
Winds: from the ENE (60 degrees) at 5 MPH (4 knots; 2.1 m/s)
Visibility: 10 or more miles (16+ km)
Ceiling: at least 12,000 feet AGL
Clouds: few clouds at 3400 feet AGL
scattered clouds at 4300 feet AGL
scattered clouds at 5000 feet AGL
Present Weather: -TSRA  (light rain associated with thunderstorm(s))
KPIE 221904Z 06004KT 10SM -TSRA FEW034 SCT043 SCT050 29/24 A3007 RMK AO2 LTG DSNT S RAB1859 TSB1858 P0000 T02890239

Conditions at: KPIE observed 22 July 2017  18:53 UTC
Temperature: 29.4°C (85°F)
Dewpoint: 23.9°C (75°F) [RH = 72%]
Pressure (altimeter): 30.07 inches Hg (1018.4 mb)
[Sea-level pressure: 1018.1 mb]
Winds: from the ENE (60 degrees) at 6 MPH (5 knots; 2.6 m/s)
Visibility: 10 or more miles (16+ km)
Ceiling: at least 12,000 feet AGL
Clouds: scattered clouds at 2700 feet AGL
Present Weather: no significant weather observed at this time
KPIE 221853Z 06005KT 10SM SCT027 29/24 A3007 RMK AO2 LTG DSNT SE AND S SLP181 T02940239

Conditions at: KPIE observed 22 July 2017  18:31 UTC
Temperature: 29.4°C (85°F)
Dewpoint: 23.3°C (74°F) [RH = 70%]
Pressure (altimeter): 30.07 inches Hg (1018.4 mb)
Winds: from the NNW (340 degrees) at 3 MPH (3 knots; 1.6 m/s)
Visibility: 10 or more miles (16+ km)
Ceiling: at least 12,000 feet AGL
Clouds: scattered clouds at 2700 feet AGL
Present Weather: VCTS  (thunderstorm in vicinity)
KPIE 221831Z 34003KT 10SM VCTS SCT027 29/23 A3007 RMK AO2 LTG DSNT NE AND S AND SW T02940233

Conditions at: KPIE observed 22 July 2017  17:53 UTC
Temperature: 28.9°C (84°F)
Dewpoint: 23.3°C (74°F) [RH = 72%]
Pressure (altimeter): 30.08 inches Hg (1018.7 mb)
[Sea-level pressure: 1018.5 mb]
Winds: from the NW (320 degrees) at 5 MPH (4 knots; 2.1 m/s)
Visibility: 10 or more miles (16+ km)
Ceiling: at least 12,000 feet AGL
Clouds: few clouds at 2700 feet AGL
scattered clouds at 3500 feet AGL
Present Weather: no significant weather observed at this time
KPIE 221753Z 32004KT 10SM FEW027 SCT035 29/23 A3008 RMK AO2 LTG DSNT ALQDS SLP185 60001 T02890233 10311 20261 58008

Conditions at: KPIE observed 22 July 2017  16:53 UTC
Temperature: 31.1°C (88°F)
Dewpoint: 23.9°C (75°F) [RH = 66%]
Pressure (altimeter): 30.08 inches Hg (1018.7 mb)
[Sea-level pressure: 1018.7 mb]
Winds: from the NNW (330 degrees) at 13 MPH (11 knots; 5.7 m/s)
Visibility: 10 or more miles (16+ km)
Ceiling: at least 12,000 feet AGL
Clouds: scattered clouds at 3500 feet AGL
Present Weather: no significant weather observed at this time
KPIE 221653Z COR 33011KT 10SM SCT035 31/24 A3008 RMK AO2 LTG DSNT N AND NW SLP187 T03110239

Conditions at: KPIE observed 22 July 2017  15:53 UTC
Temperature: 28.3°C (83°F)
Dewpoint: 25.0°C (77°F) [RH = 82%]
Pressure (altimeter): 30.11 inches Hg (1019.7 mb)
[Sea-level pressure: 1019.4 mb]
Winds: from the S (190 degrees) at 12 MPH (10 knots; 5.2 m/s)
Visibility: 10 or more miles (16+ km)
Ceiling: at least 12,000 feet AGL
Clouds: few clouds at 1200 feet AGL
scattered clouds at 2800 feet AGL
Present Weather: no significant weather observed at this time
KPIE 221553Z 19010KT 10SM FEW012 SCT028 28/25 A3011 RMK AO2 LTG DSNT W-N SLP194 T02830250

Conditions at: KPIE observed 22 July 2017  14:53 UTC
Temperature: 27.2°C (81°F)
Dewpoint: 23.9°C (75°F) [RH = 82%]
Pressure (altimeter): 30.10 inches Hg (1019.4 mb)
[Sea-level pressure: 1019.3 mb]
Winds: from the SSE (160 degrees) at 6 MPH (5 knots; 2.6 m/s)
Visibility: 10 or more miles (16+ km)
Ceiling: 7500 feet AGL
Clouds: scattered clouds at 1200 feet AGL
broken clouds at 7500 feet AGL
Present Weather: no significant weather observed at this time
KPIE 221453Z 16005KT 10SM SCT012 BKN075 27/24 A3010 RMK AO2 LTG DSNT ALQDS SLP193 60001 T02720239 50015

Conditions at: KPIE observed 22 July 2017  14:01 UTC
Temperature: 27.8°C (82°F)
Dewpoint: 24.4°C (76°F) [RH = 82%]
Pressure (altimeter): 30.10 inches Hg (1019.4 mb)
Winds: calm
Visibility: 10 or more miles (16+ km)
Ceiling: 3900 feet AGL
Clouds: broken clouds at 3900 feet AGL
Present Weather: no significant weather observed at this time
KPIE 221401Z 00000KT 10SM BKN039 28/24 A3010 RMK AO2 LTG DSNT ALQDS T02780244

Conditions at: KPIE observed 22 July 2017  13:53 UTC
Temperature: 27.2°C (81°F)
Dewpoint: 23.9°C (75°F) [RH = 82%]
Pressure (altimeter): 30.11 inches Hg (1019.7 mb)
[Sea-level pressure: 1019.4 mb]
Winds: calm
Visibility: 10 or more miles (16+ km)
Ceiling: 3900 feet AGL
Clouds: few clouds at 3000 feet AGL
broken clouds at 3900 feet AGL
Present Weather: VCTS  (thunderstorm in vicinity)
KPIE 221353Z 00000KT 10SM VCTS FEW030 BKN039 27/24 A3011 RMK AO2 LTG DSNT ALQDS RAE1258 TSE28 SLP194 P0000 T02720239

Conditions at: KPIE observed 22 July 2017  13:34 UTC
Temperature: 26.7°C (80°F)
Dewpoint: 24.4°C (76°F) [RH = 87%]
Pressure (altimeter): 30.10 inches Hg (1019.4 mb)
Winds: calm
Visibility: 10 or more miles (16+ km)
Ceiling: 3700 feet AGL
Clouds: scattered clouds at 3000 feet AGL
broken clouds at 3700 feet AGL
broken clouds at 6500 feet AGL
Present Weather: VCTS  (thunderstorm in vicinity)
KPIE 221334Z 00000KT 10SM VCTS SCT030 BKN037 BKN065 27/24 A3010 RMK AO2 LTG DSNT ALQDS RAE1258 TSE28 P0000 T02670244

Conditions at: KPIE observed 22 July 2017  12:53 UTC
Temperature: 26.1°C (79°F)
Dewpoint: 23.9°C (75°F) [RH = 88%]
Pressure (altimeter): 30.08 inches Hg (1018.7 mb)
[Sea-level pressure: 1018.6 mb]
Winds: from the S (170 degrees) at 5 MPH (4 knots; 2.1 m/s)
Visibility: 5 miles (8 km)
Ceiling: 4700 feet AGL
Clouds: few clouds at 1900 feet AGL
scattered clouds at 2900 feet AGL
broken clouds at 4700 feet AGL
Present Weather: -TSRA BR  (light rain associated with thunderstorm(s), mist)
KPIE 221253Z COR 17004KT 5SM R18L/4000VP6000FT -TSRA BR FEW019 SCT029 BKN047 26/24 A3008 RMK AO2 LTG DSNT ALQDS RAB11E21B43 TSB25 SLP186 P0001 T02610239

Conditions at: KPIE observed 22 July 2017  12:31 UTC
Temperature: 27.8°C (82°F)
Dewpoint: 25.6°C (78°F) [RH = 88%]
Pressure (altimeter): 30.08 inches Hg (1018.7 mb)
Winds: from the SSE (150 degrees) at 5 MPH (4 knots; 2.1 m/s)
Visibility: 10 or more miles (16+ km)
Ceiling: 4600 feet AGL
Clouds: few clouds at 1600 feet AGL
scattered clouds at 2700 feet AGL
broken clouds at 4600 feet AGL
Present Weather: TS  (thunderstorm)
KPIE 221231Z 15004KT 10SM TS FEW016 SCT027 BKN046 28/26 A3008 RMK AO2 LTG DSNT SE AND S RAB11E21 TSB25 P0000 T02780256

Conditions at: KPIE observed 22 July 2017  12:24 UTC
Temperature: 27.2°C (81°F)
Dewpoint: 25.6°C (78°F) [RH = 91%]
Pressure (altimeter): 30.07 inches Hg (1018.4 mb)
Winds: from the SE (140 degrees) at 8 MPH (7 knots; 3.6 m/s)
Visibility: 10 or more miles (16+ km)
Ceiling: 6500 feet AGL
Clouds: few clouds at 2200 feet AGL
scattered clouds at 4100 feet AGL
broken clouds at 6500 feet AGL
Present Weather: VCTS  (thunderstorm in vicinity)
KPIE 221224Z 14007KT 10SM VCTS FEW022 SCT041 BKN065 27/26 A3007 RMK AO2 LTG DSNT SE AND S RAB11E21 P0000 T02720256

Conditions at: KPIE observed 22 July 2017  11:53 UTC
Temperature: 26.7°C (80°F)
Dewpoint: 25.0°C (77°F) [RH = 90%]
Pressure (altimeter): 30.06 inches Hg (1018.0 mb)
[Sea-level pressure: 1017.9 mb]
Winds: calm
Visibility: 10 or more miles (16+ km)
Ceiling: at least 12,000 feet AGL
Clouds: scattered clouds at 1500 feet AGL
Present Weather: VCTS  (thunderstorm in vicinity)
KPIE 221153Z 00000KT 10SM VCTS SCT015 27/25 A3006 RMK AO2 LTG DSNT ALQDS SLP179 60017 70020 T02670250 10267 20250 53015

Conditions at: KPIE observed 22 July 2017  10:53 UTC
Temperature: 25.6°C (78°F)
Dewpoint: 23.9°C (75°F) [RH = 90%]
Pressure (altimeter): 30.04 inches Hg (1017.4 mb)
[Sea-level pressure: 1017.3 mb]
Winds: calm
Visibility: 10 or more miles (16+ km)
Ceiling: at least 12,000 feet AGL
Clouds: few clouds at 11000 feet AGL
Present Weather: no significant weather observed at this time
KPIE 221053Z 00000KT 10SM FEW110 26/24 A3004 RMK AO2 LTG DSNT S RAE42 TSE19B21E36 SLP173 P0008 T02560239

Conditions at: KPIE observed 22 July 2017  10:42 UTC
Temperature: 25.6°C (78°F)
Dewpoint: 23.9°C (75°F) [RH = 90%]
Pressure (altimeter): 30.04 inches Hg (1017.4 mb)
Winds: calm
Visibility: 10 or more miles (16+ km)
Ceiling: 11000 feet AGL
Clouds: broken clouds at 11000 feet AGL
Present Weather: no significant weather observed at this time
KPIE 221042Z 00000KT 10SM BKN110 26/24 A3004 RMK AO2 RAE42 TSE19B21E36 P0008 T02560239

Conditions at: KPIE observed 22 July 2017  10:27 UTC
Temperature: 25.0°C (77°F)
Dewpoint: 23.3°C (74°F) [RH = 90%]
Pressure (altimeter): 30.03 inches Hg (1017.0 mb)
Winds: calm
Visibility: 10 or more miles (16+ km)
Ceiling: 11000 feet AGL
Clouds: few clouds at 6500 feet AGL
few clouds at 8000 feet AGL
broken clouds at 11000 feet AGL
Present Weather: -TSRA  (light rain associated with thunderstorm(s))
KPIE 221027Z 00000KT 10SM -TSRA FEW065 FEW080 BKN110 25/23 A3003 RMK AO2 TSE19B21 P0007 T02500233

Conditions at: KPIE observed 22 July 2017  10:19 UTC
Temperature: 25.0°C (77°F)
Dewpoint: 23.3°C (74°F) [RH = 90%]
Pressure (altimeter): 30.03 inches Hg (1017.0 mb)
Winds: calm
Visibility: 5 miles (8 km)
Ceiling: 11000 feet AGL
Clouds: few clouds at 1600 feet AGL
scattered clouds at 6500 feet AGL
overcast cloud deck at 11000 feet AGL
Present Weather: VCTS -RA BR  (thunderstorm in vicinity, light rain, mist)
KPIE 221019Z 00000KT 5SM VCTS -RA BR FEW016 SCT065 OVC110 25/23 A3003 RMK AO2 TSE19 P0007 T02500233

Conditions at: KPIE observed 22 July 2017  10:13 UTC
Temperature: 25.0°C (77°F)
Dewpoint: 22.8°C (73°F) [RH = 88%]
Pressure (altimeter): 30.03 inches Hg (1017.0 mb)
Winds: calm
Visibility: 2.50 miles (4.02 km)
Ceiling: 6500 feet AGL
Clouds: scattered clouds at 1600 feet AGL
broken clouds at 6500 feet AGL
overcast cloud deck at 11000 feet AGL
Present Weather: TSRA BR  (rain associated with thunderstorm(s), mist)
KPIE 221013Z 00000KT 2 1/2SM TSRA BR SCT016 BKN065 OVC110 25/23 A3003 RMK AO2 P0007 T02500228

Conditions at: KPIE observed 22 July 2017  10:06 UTC
Temperature: 25.0°C (77°F)
Dewpoint: 22.8°C (73°F) [RH = 88%]
Pressure (altimeter): 30.03 inches Hg (1017.0 mb)
Winds: from the WSW (240 degrees) at 6 MPH (5 knots; 2.6 m/s)
Visibility: 3 miles (5 km)
Ceiling: 6000 feet AGL
Clouds: scattered clouds at 1600 feet AGL
broken clouds at 6000 feet AGL
overcast cloud deck at 11000 feet AGL
Present Weather: +TSRA BR  (heavy rain associated with thunderstorm(s), mist)
KPIE 221006Z 24005KT 3SM +TSRA BR SCT016 BKN060 OVC110 25/23 A3003 RMK AO2 P0004 T02500228

Conditions at: KPIE observed 22 July 2017  09:53 UTC
Temperature: 25.0°C (77°F)
Dewpoint: 22.8°C (73°F) [RH = 88%]
Pressure (altimeter): 30.03 inches Hg (1017.0 mb)
[Sea-level pressure: 1016.9 mb]
Winds: from the W (280 degrees) at 12 MPH (10 knots; 5.2 m/s)
Visibility: 2.00 miles (3.22 km)
Ceiling: 1800 feet AGL
Clouds: few clouds at 1100 feet AGL
broken clouds at 1800 feet AGL
overcast cloud deck at 3400 feet AGL
Present Weather: +TSRA BR  (heavy rain associated with thunderstorm(s), mist)
KPIE 220953Z 28010KT 2SM +TSRA BR FEW011 BKN018 OVC034 25/23 A3003 RMK AO2 RAB30 TSE32B39 SLP169 P0009 T02500228

Conditions at: KPIE observed 22 July 2017  09:45 UTC
Temperature: 26.7°C (80°F)
Dewpoint: 25.0°C (77°F) [RH = 90%]
Pressure (altimeter): 30.03 inches Hg (1017.0 mb)
Winds: from the WSW (240 degrees) at 10 MPH (9 knots; 4.7 m/s)
Visibility: 10 or more miles (16+ km)
Ceiling: 3300 feet AGL
Clouds: few clouds at 2000 feet AGL
scattered clouds at 2800 feet AGL
broken clouds at 3300 feet AGL
Present Weather: -TSRA  (light rain associated with thunderstorm(s))
KPIE 220945Z AUTO 24009KT 10SM -TSRA FEW020 SCT028 BKN033 27/25 A3003 RMK AO2 RAB30 TSE32B39 P0001 T02670250

Conditions at: KPIE observed 22 July 2017  09:38 UTC
Temperature: 26.7°C (80°F)
Dewpoint: 25.0°C (77°F) [RH = 90%]
Pressure (altimeter): 30.02 inches Hg (1016.7 mb)
Winds: from the SSE (150 degrees) at 5 MPH (4 knots; 2.1 m/s)
Visibility: 6 miles (10 km)
Ceiling: 3300 feet AGL
Clouds: few clouds at 2700 feet AGL
broken clouds at 3300 feet AGL
broken clouds at 6000 feet AGL
Present Weather: VCTS -RA BR  (thunderstorm in vicinity, light rain, mist)
KPIE 220938Z AUTO 15004KT 6SM VCTS -RA BR FEW027 BKN033 BKN060 27/25 A3002 RMK AO2 RAB30 TSE32 P0001 T02670250

Conditions at: KPIE observed 22 July 2017  09:31 UTC
Temperature: 26.7°C (80°F)
Dewpoint: 25.0°C (77°F) [RH = 90%]
Pressure (altimeter): 30.02 inches Hg (1016.7 mb)
Winds: from the SSE (160 degrees) at 5 MPH (4 knots; 2.1 m/s)
Visibility: 6 miles (10 km)
Ceiling: 2700 feet AGL
Clouds: broken clouds at 2700 feet AGL
broken clouds at 3400 feet AGL
Present Weather: -RA BR  (light rain, mist)
KPIE 220931Z AUTO 16004KT 6SM -RA BR BKN027 BKN034 27/25 A3002 RMK AO2 RAB30 P0001 T02670250

Conditions at: KPIE observed 22 July 2017  09:23 UTC
Temperature: 26.7°C (80°F)
Dewpoint: 25.0°C (77°F) [RH = 90%]
Pressure (altimeter): 30.02 inches Hg (1016.7 mb)
Winds: from the SE (140 degrees) at 3 MPH (3 knots; 1.6 m/s)
Visibility: 10 or more miles (16+ km)
Ceiling: 3400 feet AGL
Clouds: scattered clouds at 2500 feet AGL
broken clouds at 3400 feet AGL
Present Weather: automated observation with no human augmentation;
there may or may not be significant weather present at this time
KPIE 220923Z AUTO 14003KT 10SM SCT025 BKN034 27/25 A3002 RMK AO2 T02670250

Conditions at: KPIE observed 22 July 2017  09:10 UTC
Temperature: 26.7°C (80°F)
Dewpoint: 25.0°C (77°F) [RH = 90%]
Pressure (altimeter): 30.02 inches Hg (1016.7 mb)
Winds: from the SSE (150 degrees) at 3 MPH (3 knots; 1.6 m/s)
Visibility: 10 or more miles (16+ km)
Ceiling: 2500 feet AGL
Clouds: broken clouds at 2500 feet AGL
broken clouds at 3400 feet AGL
Present Weather: automated observation with no human augmentation;
there may or may not be significant weather present at this time
KPIE 220910Z AUTO 15003KT 10SM BKN025 BKN034 27/25 A3002 RMK AO2 LTG DSNT S T02670250